North Sutton, NH

2:28 PM EDT on May 28, 2015 (GMT -0400)
Lebanon Municipal | | Change Station
CLOSE
Current Station
Airport
Location: Lebanon,
Elevation: 597 ft
Nearby Weather Stations
Active Advisory: Severe Thunderstorm Watch

Elev 597 ft 43.63 °N, 72.30 °W | Updated 35 minutes ago

Partly Cloudy
Partly Cloudy
82 °F
Feels Like 83 °F
N
9
Wind Variable Wind from West

Today
High -- | Low -- °F
--% Chance of Precip.
Yesterday
High -- | Low -- °F
Precip. -- in
5:12 AM 8:17 PM
Waxing Gibbous, 77% visible
Pressure 30.01 in
Visibility 10.0 miles
Clouds Few 4800 ft
Mostly Cloudy 6000 ft
Mostly Cloudy 8500 ft
Heat Index 83 °F
Dew Point 62 °F
Humidity 51%
Rainfall 0.00 in
Snow Depth Not available.
UV 6 out of 12
Pollen 10.00 out of 12
Air Quality Not available.
Flu Activity Sporadic
METAR KLEB 281753Z 28008KT 10SM FEW048 BKN060 BKN085 28/17 A3004 RMK AO2 SLP162 T02780167 10283 20211 56010

More Conditions Fewer Conditions

Pressure 30.01 in
Visibility 10.0 miles
Clouds Few 4800 ft
Mostly Cloudy 6000 ft
Mostly Cloudy 8500 ft
Heat Index 83 °F
Dew Point 62 °F
Humidity 51%
Rainfall 0.00 in
Snow Depth Not available.
UV 6 out of 12
Pollen 10.00 out of 12
Air Quality Not available.
Flu Activity Sporadic
METAR KLEB 281753Z 28008KT 10SM FEW048 BKN060 BKN085 28/17 A3004 RMK AO2 SLP162 T02780167 10283 20211 56010

More Conditions Fewer Conditions

10-Day Weather Forecast

Almanac

Astronomy

May. 28, 2015 Rise Set
Actual Time
Civil Twilight
Nautical Twilight
Astronomical Twilight
Moon
Length of Visible Light
Length of Day
Tomorrow will be .
, % of the Moon is Illuminated

Today's Extremes

State Highs State Lows

Community

WunderPhotos

Upload Photos

1,825,009 photos uploaded!

WunderBlogs® & News

Nearby

Air Quality

  Air Quality AQ Index Pollutant
Not available.

Snow Depth

Station Depth Elevation

Earthquake Activity

City Distance Mag. Time & Date
Minimum magnitude displayed is 2.5.

Coastal Water Temperatures

Place Temperature

Stations

Nearby Weather Stations

Station Location Temp. Windchill Dew Point Humidity Wind Precip. Elev Updated Type
                   
Severe Thunderstorm Watch
Statement as of 2:24 PM EDT on May 28, 2015

Severe Thunderstorm Watch 233 remains in effect until 700 PM EDT

NH
. New Hampshire counties included are

Belknap Carroll Cheshire
Coos Grafton Hillsborough
Merrimack Rockingham Strafford
Sullivan